createdAt,value
2022-12-03T00:00:46.325Z,6.12
2022-12-03T00:03:19.216Z,6.09
2022-12-03T00:05:54.195Z,6.15
2022-12-03T00:08:27.139Z,6.11
2022-12-03T00:10:59.799Z,6.19
2022-12-03T00:13:32.530Z,6.25
2022-12-03T00:16:06.049Z,6.15
2022-12-03T00:18:41.251Z,6.23
2022-12-03T00:21:15.481Z,6.21
2022-12-03T00:23:48.178Z,6.13
2022-12-03T00:26:20.999Z,6.16
2022-12-03T00:28:57.767Z,6.15
2022-12-03T00:31:30.658Z,6.15
2022-12-03T00:34:03.361Z,6.11
2022-12-03T00:36:37.474Z,6.16
2022-12-03T00:39:10.569Z,6.22
2022-12-03T00:41:44.023Z,6.19
2022-12-03T00:44:17.099Z,6.16
2022-12-03T00:46:50.223Z,6.24
2022-12-03T00:49:23.083Z,6.27
2022-12-03T00:51:57.307Z,6.25
2022-12-03T00:54:32.087Z,6.16
2022-12-03T00:57:05.184Z,6.21
2022-12-03T00:59:38.063Z,6.25
2022-12-03T01:02:12.466Z,6.13
2022-12-03T01:04:45.358Z,6.21
2022-12-03T01:07:19.653Z,6.26
2022-12-03T01:09:55.637Z,6.18
2022-12-03T01:12:28.313Z,6.13
2022-12-03T01:15:01.199Z,6.15
2022-12-03T01:17:34.142Z,6.14
2022-12-03T01:20:09.062Z,6.13
2022-12-03T01:22:43.329Z,6.08
2022-12-03T01:25:16.316Z,6.13
2022-12-03T01:27:49.150Z,6.16
2022-12-03T01:30:23.521Z,6.20
2022-12-03T01:32:55.594Z,6.13
2022-12-03T01:35:31.168Z,6.12
2022-12-03T01:38:06.420Z,6.14
2022-12-03T01:40:39.782Z,6.15
2022-12-03T01:43:12.797Z,6.08
2022-12-03T01:45:46.255Z,6.08
2022-12-03T01:48:19.614Z,6.11
2022-12-03T01:50:53.015Z,6.03
2022-12-03T01:53:27.785Z,6.07
2022-12-03T01:56:00.848Z,6.06
2022-12-03T01:58:35.653Z,6.01
2022-12-03T02:01:16.626Z,6.01
2022-12-03T02:03:49.747Z,6.08
2022-12-03T02:06:31.909Z,6.09
2022-12-03T02:09:08.576Z,6.00
2022-12-03T02:11:45.732Z,6.09
2022-12-03T02:14:21.824Z,6.08
2022-12-03T02:16:54.707Z,6.09
2022-12-03T02:19:30.489Z,6.07
2022-12-03T02:22:13.492Z,6.02
2022-12-03T02:24:53.755Z,6.02
2022-12-03T02:27:29.411Z,6.08
2022-12-03T02:30:02.280Z,6.05
2022-12-03T02:32:35.224Z,5.99
2022-12-03T02:35:14.030Z,6.04
2022-12-03T02:37:49.225Z,6.00
2022-12-03T02:40:25.640Z,5.95
2022-12-03T02:43:02.744Z,6.07
2022-12-03T02:45:39.339Z,6.08
2022-12-03T02:48:16.045Z,6.01
2022-12-03T02:50:52.469Z,6.01
2022-12-03T02:53:30.852Z,5.99
2022-12-03T02:56:04.906Z,5.92
2022-12-03T02:58:39.997Z,5.96
2022-12-03T03:01:15.518Z,6.01
2022-12-03T03:03:49.658Z,6.04
2022-12-03T03:06:23.010Z,5.93
2022-12-03T03:08:56.119Z,6.05
2022-12-03T03:11:29.016Z,6.08
2022-12-03T03:14:04.138Z,6.05
2022-12-03T03:16:37.356Z,5.93
2022-12-03T03:19:10.246Z,5.94
2022-12-03T03:21:43.303Z,6.02
2022-12-03T03:24:19.167Z,6.03
2022-12-03T03:26:53.952Z,6.00
2022-12-03T03:29:28.369Z,5.98
2022-12-03T03:32:02.778Z,6.03
2022-12-03T03:34:35.779Z,6.06
2022-12-03T03:37:11.888Z,6.08
2022-12-03T03:39:44.890Z,6.03
2022-12-03T03:42:17.925Z,6.10
2022-12-03T03:44:53.246Z,6.02
2022-12-03T03:47:26.759Z,6.04
2022-12-03T03:50:00.927Z,5.99
2022-12-03T03:52:33.974Z,5.97
2022-12-03T03:55:08.325Z,6.08
2022-12-03T03:57:41.487Z,5.99
2022-12-03T04:00:16.905Z,6.01
2022-12-03T04:02:50.089Z,6.01
2022-12-03T04:05:25.310Z,6.02
2022-12-03T04:07:58.744Z,5.96
2022-12-03T04:10:49.288Z,6.03
2022-12-03T04:13:22.376Z,5.97
2022-12-03T04:15:56.344Z,6.02
2022-12-03T04:18:44.378Z,6.04
2022-12-03T04:21:36.836Z,5.96
2022-12-03T04:24:12.050Z,5.95
2022-12-03T04:27:02.944Z,6.02
2022-12-03T04:29:35.967Z,6.06
2022-12-03T04:32:28.260Z,5.97
2022-12-03T04:35:18.712Z,6.02
2022-12-03T04:37:51.521Z,6.02
2022-12-03T04:40:42.111Z,6.00
2022-12-03T04:43:15.016Z,5.96
2022-12-03T04:45:49.457Z,5.98
2022-12-03T04:48:24.308Z,5.98
2022-12-03T04:50:57.314Z,6.05
2022-12-03T04:53:31.926Z,6.03
2022-12-03T04:56:05.139Z,6.01
2022-12-03T04:58:41.159Z,6.01
2022-12-03T05:01:14.012Z,6.00
2022-12-03T05:03:48.415Z,6.02
2022-12-03T05:06:21.399Z,6.09
2022-12-03T05:08:54.283Z,6.09
2022-12-03T05:11:26.961Z,6.10
2022-12-03T05:13:59.767Z,6.05
2022-12-03T05:16:36.825Z,6.06
2022-12-03T05:19:13.922Z,6.02
2022-12-03T05:21:45.947Z,6.07
2022-12-03T05:24:20.575Z,6.11
2022-12-03T05:26:55.498Z,6.02
2022-12-03T05:29:28.284Z,6.03
2022-12-03T05:32:01.037Z,6.06
2022-12-03T05:34:35.348Z,6.03
2022-12-03T05:37:08.367Z,6.13
2022-12-03T05:39:40.978Z,5.96
2022-12-03T05:42:31.107Z,6.06
2022-12-03T05:45:04.175Z,6.13
2022-12-03T05:47:37.040Z,6.10
2022-12-03T05:50:11.792Z,6.09
2022-12-03T05:52:44.861Z,6.05
2022-12-03T05:55:20.208Z,5.82
2022-12-03T05:57:53.044Z,5.92
2022-12-03T06:00:28.464Z,6.08
2022-12-03T06:03:01.502Z,6.06
2022-12-03T06:05:38.070Z,6.12
2022-12-03T06:08:13.813Z,6.12
2022-12-03T06:10:52.873Z,6.07
2022-12-03T06:13:28.563Z,6.05
2022-12-03T06:16:01.553Z,6.06
2022-12-03T06:18:34.370Z,6.08
2022-12-03T06:21:08.741Z,6.05
2022-12-03T06:23:44.823Z,6.13
2022-12-03T06:26:17.682Z,6.13
2022-12-03T06:28:50.492Z,6.14
2022-12-03T06:31:23.548Z,6.20
2022-12-03T06:33:56.189Z,6.14
2022-12-03T06:36:33.199Z,6.13
2022-12-03T06:39:06.119Z,6.16
2022-12-03T06:41:39.353Z,6.16
2022-12-03T06:44:12.539Z,6.10
2022-12-03T06:46:45.888Z,6.14
2022-12-03T06:49:18.913Z,6.18
2022-12-03T06:51:53.386Z,6.16
2022-12-03T06:54:30.962Z,6.16
2022-12-03T06:57:04.257Z,6.07
2022-12-03T06:59:37.546Z,6.13
2022-12-03T07:02:11.777Z,6.09
2022-12-03T07:04:46.439Z,6.11
2022-12-03T07:07:20.916Z,6.20
2022-12-03T07:09:53.810Z,6.14
2022-12-03T07:12:27.011Z,6.15
2022-12-03T07:15:00.242Z,6.13
2022-12-03T07:17:38.546Z,6.21
2022-12-03T07:20:12.788Z,6.23
2022-12-03T07:22:48.910Z,6.15
2022-12-03T07:25:23.724Z,6.13
2022-12-03T07:27:57.254Z,6.17
2022-12-03T07:30:30.838Z,6.13
2022-12-03T07:33:03.911Z,6.17
2022-12-03T07:35:38.451Z,6.16
2022-12-03T07:38:21.533Z,6.22
2022-12-03T07:40:58.148Z,6.15
2022-12-03T07:43:34.165Z,6.22
2022-12-03T07:46:11.947Z,6.12
2022-12-03T07:48:49.806Z,6.12
2022-12-03T07:51:32.482Z,6.11
2022-12-03T07:54:12.514Z,6.08
2022-12-03T07:56:46.063Z,6.12
2022-12-03T07:59:20.265Z,6.13
2022-12-03T08:01:53.587Z,6.17
2022-12-03T08:04:28.438Z,6.19
2022-12-03T08:07:06.580Z,6.11
2022-12-03T08:09:42.627Z,6.15
2022-12-03T08:12:19.156Z,6.12
2022-12-03T08:14:52.917Z,6.15
2022-12-03T08:17:32.516Z,6.16
2022-12-03T08:20:12.528Z,6.20
2022-12-03T08:22:50.919Z,6.17
2022-12-03T08:25:27.887Z,6.16
2022-12-03T08:28:08.736Z,6.19
2022-12-03T08:30:42.511Z,6.16
2022-12-03T08:33:21.707Z,6.26
2022-12-03T08:35:55.395Z,6.23
2022-12-03T08:38:30.633Z,6.21
2022-12-03T08:41:13.852Z,6.24
2022-12-03T08:43:46.926Z,6.24
2022-12-03T08:46:23.726Z,6.29
2022-12-03T08:48:56.771Z,6.27
2022-12-03T08:51:29.612Z,6.31
2022-12-03T08:54:12.800Z,6.27
2022-12-03T08:56:47.918Z,6.30
2022-12-03T08:59:29.377Z,6.27
2022-12-03T09:02:02.627Z,6.21
2022-12-03T09:04:39.629Z,6.27
2022-12-03T09:07:12.957Z,6.25
2022-12-03T09:09:45.897Z,6.27
2022-12-03T09:12:20.496Z,6.26
2022-12-03T09:14:54.281Z,6.29
2022-12-03T09:17:27.266Z,6.19
2022-12-03T09:20:00.188Z,6.32
2022-12-03T09:22:33.105Z,6.21
2022-12-03T09:25:06.757Z,6.29
2022-12-03T09:27:41.201Z,6.13
2022-12-03T09:30:14.388Z,6.34
2022-12-03T09:32:47.478Z,6.42
2022-12-03T09:35:20.356Z,6.34
2022-12-03T09:37:53.140Z,6.36
2022-12-03T09:40:30.116Z,6.21
2022-12-03T09:43:05.552Z,6.30
2022-12-03T09:45:38.678Z,6.38
2022-12-03T09:48:18.891Z,6.43
2022-12-03T09:50:57.415Z,6.43
2022-12-03T09:53:30.791Z,6.49
2022-12-03T09:56:03.919Z,6.37
2022-12-03T09:58:41.282Z,6.35
2022-12-03T10:01:16.260Z,6.34
2022-12-03T10:03:54.720Z,6.25
2022-12-03T10:06:27.621Z,6.34
2022-12-03T10:09:00.540Z,6.50
2022-12-03T10:11:36.419Z,6.36
2022-12-03T10:14:24.108Z,6.36
2022-12-03T10:17:00.191Z,6.38
2022-12-03T10:19:37.651Z,6.44
2022-12-03T10:22:10.791Z,6.45
2022-12-03T10:24:44.846Z,6.35
2022-12-03T10:27:25.497Z,6.35
2022-12-03T10:30:02.058Z,6.48
2022-12-03T10:32:42.861Z,6.46
2022-12-03T10:35:20.747Z,6.50
2022-12-03T10:38:03.161Z,6.49
2022-12-03T10:40:37.770Z,6.38
2022-12-03T10:43:16.003Z,6.46
2022-12-03T10:45:52.041Z,6.38
2022-12-03T10:48:27.551Z,6.37
2022-12-03T10:51:04.875Z,6.50
2022-12-03T10:53:39.667Z,6.51
2022-12-03T10:56:19.213Z,6.45
2022-12-03T10:58:53.054Z,6.46
2022-12-03T11:01:27.959Z,6.48
2022-12-03T11:04:06.280Z,6.52
2022-12-03T11:06:40.329Z,6.49
2022-12-03T11:09:19.249Z,6.54
2022-12-03T11:11:53.291Z,6.59
2022-12-03T11:15:06.456Z,6.48
2022-12-03T11:17:50.498Z,6.56
2022-12-03T11:21:12.591Z,6.47
2022-12-03T11:24:20.802Z,6.41
2022-12-03T11:27:26.953Z,6.42
2022-12-03T11:30:01.937Z,6.40
2022-12-03T11:33:20.886Z,6.46
2022-12-03T11:36:13.547Z,6.46
2022-12-03T11:38:58.238Z,6.58
2022-12-03T11:41:34.286Z,6.53
2022-12-03T11:44:32.662Z,6.49
2022-12-03T11:47:16.240Z,6.48
2022-12-03T11:49:51.101Z,6.48
2022-12-03T11:52:30.689Z,6.45
2022-12-03T11:55:15.440Z,6.50
2022-12-03T11:57:48.569Z,6.35
2022-12-03T12:00:24.063Z,6.43
2022-12-03T12:02:58.961Z,6.47
2022-12-03T12:05:37.387Z,6.54
2022-12-03T12:08:22.061Z,6.48
2022-12-03T12:10:54.879Z,6.49
2022-12-03T12:13:56.820Z,6.53
2022-12-03T12:16:51.465Z,6.55
2022-12-03T12:19:54.515Z,6.48
2022-12-03T12:22:55.374Z,6.41
2022-12-03T12:25:40.358Z,6.51
2022-12-03T12:28:16.416Z,6.50
2022-12-03T12:30:49.683Z,6.46
2022-12-03T12:33:24.334Z,6.46
2022-12-03T12:35:57.442Z,6.44
2022-12-03T12:38:31.646Z,6.44
2022-12-03T12:41:08.499Z,6.43
2022-12-03T12:43:41.806Z,6.38
2022-12-03T12:46:45.926Z,6.41
2022-12-03T12:49:12.228Z,6.46
2022-12-03T12:51:46.571Z,6.31
2022-12-03T12:54:21.109Z,6.38
2022-12-03T12:56:54.470Z,6.37
2022-12-03T12:59:27.442Z,6.33
2022-12-03T13:02:04.597Z,6.44
2022-12-03T13:04:41.447Z,6.37
2022-12-03T13:07:15.108Z,6.45
2022-12-03T13:09:55.750Z,6.42
2022-12-03T13:12:31.004Z,6.41
2022-12-03T13:15:03.741Z,6.35
2022-12-03T13:17:36.562Z,6.29
2022-12-03T13:20:18.914Z,6.31
2022-12-03T13:22:51.760Z,6.26
2022-12-03T13:25:58.860Z,6.37
2022-12-03T13:28:27.257Z,6.27
2022-12-03T13:31:13.724Z,6.33
2022-12-03T13:33:46.603Z,6.34
2022-12-03T13:36:21.297Z,6.36
2022-12-03T13:38:54.488Z,6.34
2022-12-03T13:41:46.623Z,6.32
2022-12-03T13:44:20.362Z,6.25
2022-12-03T13:46:53.219Z,6.18
2022-12-03T13:49:26.206Z,6.27
2022-12-03T13:51:58.986Z,6.23
2022-12-03T13:54:37.113Z,6.25
2022-12-03T13:57:11.269Z,6.24
2022-12-03T13:59:44.079Z,6.16
2022-12-03T14:02:17.201Z,6.25
2022-12-03T14:04:52.148Z,6.17
2022-12-03T14:07:28.211Z,6.21
2022-12-03T14:10:01.014Z,6.21
2022-12-03T14:12:35.527Z,6.28
2022-12-03T14:15:10.894Z,6.27
2022-12-03T14:17:43.794Z,6.32
2022-12-03T14:20:17.298Z,6.43
2022-12-03T14:22:52.009Z,6.48
2022-12-03T14:25:29.111Z,6.56
2022-12-03T14:28:05.660Z,6.57
2022-12-03T14:30:38.533Z,6.52
2022-12-03T14:33:11.361Z,6.38
2022-12-03T14:35:44.244Z,6.26
2022-12-03T14:38:19.145Z,6.30
2022-12-03T14:40:52.481Z,6.29
2022-12-03T14:43:26.489Z,6.24
2022-12-03T14:45:59.473Z,6.17
2022-12-03T14:48:32.415Z,6.27
2022-12-03T14:51:07.727Z,6.22
2022-12-03T14:53:40.707Z,6.23
2022-12-03T14:56:13.574Z,6.28
2022-12-03T14:58:47.732Z,6.15
2022-12-03T15:01:23.933Z,6.20
2022-12-03T15:03:59.976Z,6.03
2022-12-03T15:06:34.773Z,6.17
2022-12-03T15:09:08.183Z,6.17
2022-12-03T15:11:46.137Z,6.05
2022-12-03T15:14:22.160Z,6.02
2022-12-03T15:16:55.903Z,6.10
2022-12-03T15:19:28.943Z,6.14
2022-12-03T15:22:01.962Z,6.12
2022-12-03T15:24:40.233Z,6.13
2022-12-03T15:27:13.417Z,6.12
2022-12-03T15:29:55.924Z,6.07
2022-12-03T15:32:29.368Z,6.00
2022-12-03T15:35:05.497Z,6.01
2022-12-03T15:37:42.266Z,5.98
2022-12-03T15:40:18.882Z,5.98
2022-12-03T15:42:52.531Z,6.00
2022-12-03T15:45:28.605Z,6.06
2022-12-03T15:48:04.269Z,6.03
2022-12-03T15:50:40.285Z,5.97
2022-12-03T15:53:13.641Z,5.92
2022-12-03T15:55:47.419Z,5.95
2022-12-03T15:58:20.702Z,5.94
2022-12-03T16:00:55.669Z,5.93
2022-12-03T16:03:29.193Z,5.83
2022-12-03T16:06:02.417Z,5.75
2022-12-03T16:08:35.782Z,5.84
2022-12-03T16:11:09.923Z,5.84
2022-12-03T16:13:42.848Z,5.85
2022-12-03T16:16:17.157Z,5.85
2022-12-03T16:18:52.955Z,5.85
2022-12-03T16:21:27.258Z,5.77
2022-12-03T16:24:00.669Z,5.73
2022-12-03T16:26:33.995Z,5.83
2022-12-03T16:29:06.945Z,5.78
2022-12-03T16:31:41.725Z,5.79
2022-12-03T16:34:14.675Z,5.63
2022-12-03T16:36:47.489Z,5.74
2022-12-03T16:39:20.900Z,5.75
2022-12-03T16:41:56.462Z,5.89
2022-12-03T16:44:44.851Z,5.77
2022-12-03T16:47:19.463Z,5.84
2022-12-03T16:49:53.028Z,5.86
2022-12-03T16:52:26.201Z,5.88
2022-12-03T16:54:59.222Z,5.64
2022-12-03T16:57:37.625Z,6.06
2022-12-03T17:00:11.811Z,6.36
2022-12-03T17:02:47.484Z,6.48
2022-12-03T17:05:20.597Z,6.50
2022-12-03T17:07:53.875Z,6.48
2022-12-03T17:10:29.232Z,6.51
2022-12-03T17:13:10.541Z,6.58
2022-12-03T17:15:45.212Z,6.56
2022-12-03T17:18:24.050Z,6.59
2022-12-03T17:20:57.407Z,6.51
2022-12-03T17:23:33.125Z,6.51
2022-12-03T17:26:06.170Z,6.51
2022-12-03T17:28:41.096Z,6.49
2022-12-03T17:31:14.431Z,6.38
2022-12-03T17:33:48.654Z,6.45
2022-12-03T17:36:21.571Z,6.52
2022-12-03T17:38:54.585Z,6.47
2022-12-03T17:41:27.503Z,6.39
2022-12-03T17:44:01.245Z,6.40
2022-12-03T17:46:36.509Z,6.41
2022-12-03T17:49:10.638Z,6.30
2022-12-03T17:51:43.568Z,6.33
2022-12-03T17:54:16.291Z,6.33
2022-12-03T17:56:54.875Z,6.31
2022-12-03T17:59:31.573Z,6.34
2022-12-03T18:02:06.257Z,6.28
2022-12-03T18:04:43.660Z,6.33
2022-12-03T18:07:16.487Z,6.34
2022-12-03T18:09:51.524Z,6.31
2022-12-03T18:12:25.396Z,6.33
2022-12-03T18:14:58.654Z,6.28
2022-12-03T18:17:31.784Z,6.17
2022-12-03T18:20:06.827Z,6.15
2022-12-03T18:22:40.373Z,6.33
2022-12-03T18:25:14.461Z,6.20
2022-12-03T18:27:50.190Z,6.17
2022-12-03T18:30:25.792Z,6.19
2022-12-03T18:32:59.141Z,6.21
2022-12-03T18:35:33.508Z,6.21
2022-12-03T18:38:06.348Z,6.21
2022-12-03T18:40:39.700Z,6.15
2022-12-03T18:43:13.126Z,6.20
2022-12-03T18:45:51.579Z,6.19
2022-12-03T18:48:27.345Z,6.19
2022-12-03T18:51:01.732Z,6.15
2022-12-03T18:53:35.761Z,6.17
2022-12-03T18:56:09.161Z,6.15
2022-12-03T18:58:42.029Z,6.12
2022-12-03T19:01:17.495Z,6.12
2022-12-03T19:03:51.491Z,6.10
2022-12-03T19:06:25.724Z,6.07
2022-12-03T19:08:59.226Z,5.99
2022-12-03T19:11:34.094Z,6.04
2022-12-03T19:14:10.760Z,6.04
2022-12-03T19:16:44.596Z,6.08
2022-12-03T19:19:27.298Z,6.03
2022-12-03T19:24:49.911Z,5.98
2022-12-03T19:27:23.309Z,5.94
2022-12-03T19:29:56.517Z,6.09
2022-12-03T19:32:30.074Z,6.06
2022-12-03T19:35:05.497Z,6.01
2022-12-03T19:37:38.985Z,5.98
2022-12-03T19:40:13.943Z,6.02
2022-12-03T19:42:46.807Z,6.03
2022-12-03T19:45:19.727Z,6.05
2022-12-03T19:47:55.850Z,6.02
2022-12-03T19:50:32.175Z,5.97
2022-12-03T19:53:05.107Z,5.97
2022-12-03T19:55:39.291Z,5.94
2022-12-03T19:58:12.231Z,6.01
2022-12-03T20:00:45.046Z,5.99
2022-12-03T20:03:18.012Z,5.92
2022-12-03T20:05:51.923Z,6.01
2022-12-03T20:08:24.838Z,5.98
2022-12-03T20:11:09.919Z,5.98
2022-12-03T20:13:43.687Z,5.96
2022-12-03T20:16:17.537Z,5.86
2022-12-03T20:18:52.040Z,5.95
2022-12-03T20:25:29.101Z,5.94
2022-12-03T20:28:05.981Z,5.99
2022-12-03T20:30:38.950Z,5.86
2022-12-03T20:33:13.712Z,5.96
2022-12-03T20:35:52.702Z,5.92
2022-12-03T20:38:26.987Z,5.93
2022-12-03T20:41:02.625Z,5.91
2022-12-03T20:43:37.634Z,5.82
2022-12-03T20:46:12.603Z,5.91
2022-12-03T20:48:46.650Z,6.00
2022-12-03T20:51:21.790Z,5.92
2022-12-03T20:53:55.386Z,5.86
2022-12-03T20:56:31.455Z,5.85
2022-12-03T20:59:08.228Z,5.80
2022-12-03T21:01:43.038Z,5.86
2022-12-03T21:04:18.000Z,5.81
2022-12-03T21:06:51.117Z,5.79
2022-12-03T21:09:23.884Z,5.82
2022-12-03T21:11:56.751Z,5.85
2022-12-03T21:14:30.696Z,5.86
2022-12-03T21:17:08.770Z,5.81
2022-12-03T21:19:42.149Z,5.81
2022-12-03T21:22:15.052Z,5.74
2022-12-03T21:24:49.018Z,5.71
2022-12-03T21:27:22.201Z,5.74
2022-12-03T21:29:56.899Z,5.80
2022-12-03T21:32:29.791Z,5.77
2022-12-03T21:35:02.638Z,5.80
2022-12-03T21:37:35.325Z,5.81
2022-12-03T21:40:11.891Z,5.78
2022-12-03T21:42:44.646Z,5.85
2022-12-03T21:45:18.980Z,5.79
2022-12-03T21:47:52.143Z,5.78
2022-12-03T21:50:25.691Z,5.85
2022-12-03T21:52:58.557Z,5.85
2022-12-03T21:55:31.394Z,5.78
2022-12-03T21:58:04.409Z,5.71
2022-12-03T22:00:38.455Z,5.79
2022-12-03T22:03:11.814Z,5.78
2022-12-03T22:05:45.178Z,5.75
2022-12-03T22:08:18.372Z,5.88
2022-12-03T22:10:51.273Z,5.86
2022-12-03T22:13:24.082Z,5.74
2022-12-03T22:16:01.105Z,5.81
2022-12-03T22:18:34.944Z,5.78
2022-12-03T22:21:10.272Z,5.86
2022-12-03T22:23:43.585Z,5.82
2022-12-03T22:26:18.139Z,5.91
2022-12-03T22:28:51.844Z,5.88
2022-12-03T22:31:26.206Z,5.81
2022-12-03T22:33:59.220Z,5.83
2022-12-03T22:36:32.477Z,5.82
2022-12-03T22:39:05.566Z,5.84
2022-12-03T22:41:38.435Z,5.76
2022-12-03T22:44:11.568Z,5.79
2022-12-03T22:46:45.782Z,5.77
2022-12-03T22:49:19.027Z,5.72
2022-12-03T22:51:51.988Z,5.72
2022-12-03T22:54:25.662Z,5.79
2022-12-03T22:57:01.084Z,5.81
2022-12-03T22:59:35.940Z,5.77
2022-12-03T23:02:10.310Z,5.80
2022-12-03T23:04:43.165Z,5.78
2022-12-03T23:07:19.487Z,5.89
2022-12-03T23:09:52.534Z,5.72
2022-12-03T23:12:25.503Z,5.77
2022-12-03T23:14:58.356Z,5.88
2022-12-03T23:17:32.666Z,5.81
2022-12-03T23:20:07.657Z,5.85
2022-12-03T23:22:40.844Z,5.73
2022-12-03T23:25:13.801Z,5.71
2022-12-03T23:27:46.800Z,5.66
2022-12-03T23:30:19.683Z,5.61
2022-12-03T23:32:54.230Z,5.70
2022-12-03T23:35:27.276Z,5.69
2022-12-03T23:37:59.966Z,5.73
2022-12-03T23:40:32.827Z,5.75
2022-12-03T23:43:05.628Z,5.76
2022-12-03T23:45:39.153Z,5.66
2022-12-03T23:48:13.455Z,5.69
2022-12-03T23:50:46.367Z,5.62
2022-12-03T23:53:19.039Z,5.67
2022-12-03T23:55:54.325Z,5.66
2022-12-03T23:58:29.933Z,5.66
